Aeroporto :
LOGIN :

Iscrizione | Disclaimer

   EN    FR    IT 

 










Sommario :    VFR   VFR Marginale   IFR   IFR Intensivo   IFR Molto Intensivo
Visibilità : 
Base nubi : 
>= 8 km
>= 3000ft
5 / 8 km
1000 / 3000 ft
1500m / 5 km
500 / 1000 ft
800 / 1500m
200 / 500 ft
< 800m
< 200 ft
Simboli :   Temporali  Nebbia  Neve Forte  Precipitazioni Forti  Vento > 20 kt
SIGMETs :   Varie  Temporali  Ghiacco  Turbolenza  Onda orograficha  Ceneri Vulcaniche






- Altitudine del aeroporto : 10 ft
- Codice IATA : AAL


EKYT - Aalborg

ULTIMO METAR :
  • 021440Z AUTO 28022G36KT 250V310 9999 -SHRA FEW015/// SCT026/// BKN034/// BKN060/// 04/01 Q0993

METARs OBSOLETI :
  • 021431Z AUTO 27024G35KT 9999 -SHRA FEW015/// SCT027/// BKN033/// BKN050/// 05/02 Q0992
  • 021416Z 27028G42KT 9999 SHRA FEW023 SCT030 04/02 Q0993
  • 021351Z 25027G37KT 9999 -DZ FEW023 SCT030 07/04 Q0992
  • 021333Z AUTO 25028G39KT 9999 FEW023/// SCT031/// BKN037/// BKN080/// 07/04 Q0992
  • 021311Z AUTO 25033G44KT 9999 -SHRA FEW023/// SCT034/// BKN041/// BKN085/// 08/05 Q0992
  • 021256Z AUTO 25033G44KT 7000 -DZ FEW024/// BKN030/// BKN040/// 07/04 Q0992
  • 021250Z 25033G48KT 9999 FEW022 SCT028 08/04 Q0992
  • 021241Z AUTO 25034G45KT 9999 FEW022/// BKN028/// BKN035/// 08/04 Q0992
  • 021226Z AUTO 24034G47KT 9999 FEW020/// BKN025/// BKN035/// 08/03 Q0993
  • 021210Z AUTO 25032G43KT 9999 FEW019/// SCT026/// BKN032/// 08/04 Q0993
  • 021152Z AUTO 25035G46KT 9999 FEW024/// BKN035/// BKN041/// 08/04 Q0993

TAF TAF EKYT
Valido dal 02 a 12 ore il 03 a 12 ore UTC


021118Z 0212/0312 26028G38KT 9999 FEW025 BKN040
TEMPO 0212/0216 26035G47KT 7000 SHRA BKN012TCU
BECMG 0221/0224 29022G35KT
TEMPO 0221/0301 6000 -SHRA SCT012CB
TEMPO 0308/0312 29028G40KT -SHRA SCT020CB



MetMap, La meteo Aeronautica in un colpo d'occhio ! - Copyright ORBIFLY Dicembre 2007 - Disclaimer

ORBIFLY MET'MAP TEAM :

Programmazione e sviluppo : Alexandra Zaïnal
Concezione : Baudouin d'Aumeries
Aiuto per la programmazione : Marc-Olivier Méhu
Supporto tecnico e logistico : Manuel Goepfert
Aiuto per la traduzione : Arnaldo La Scala

Contatto : metmap@orbifly.com




FONTI E CREDITI :

   NOAA